createdAt,value
2019-03-01T00:01:21.953Z,7.17
2019-03-01T00:04:02.212Z,8.13
2019-03-01T00:06:39.561Z,7.90
2019-03-01T00:10:05.121Z,7.83
2019-03-01T00:12:57.568Z,7.72
2019-03-01T00:15:52.265Z,7.12
2019-03-01T00:19:08.778Z,7.08
2019-03-01T00:21:52.527Z,7.50
2019-03-01T00:24:53.352Z,7.80
2019-03-01T00:28:00.047Z,7.50
2019-03-01T00:30:59.236Z,7.33
2019-03-01T00:34:13.387Z,7.17
2019-03-01T00:37:22.932Z,7.60
2019-03-01T00:40:17.529Z,7.35
2019-03-01T00:43:33.932Z,7.72
2019-03-01T00:46:03.761Z,7.35
2019-03-01T00:48:33.679Z,7.37
2019-03-01T00:51:03.498Z,7.87
2019-03-01T00:53:33.395Z,7.83
2019-03-01T00:56:03.207Z,7.30
2019-03-01T00:58:33.013Z,7.42
2019-03-01T01:01:02.937Z,7.55
2019-03-01T01:03:32.662Z,7.60
2019-03-01T01:06:02.573Z,7.40
2019-03-01T01:08:32.491Z,7.17
2019-03-01T01:11:02.303Z,7.12
2019-03-01T01:13:32.122Z,7.53
2019-03-01T01:16:02.029Z,7.53
2019-03-01T01:18:31.827Z,7.47
2019-03-01T01:21:01.643Z,7.40
2019-03-01T01:23:31.464Z,7.70
2019-03-01T01:26:01.306Z,7.00
2019-03-01T01:28:31.260Z,7.05
2019-03-01T01:31:01.016Z,7.67
2019-03-01T01:33:30.913Z,7.55
2019-03-01T01:36:00.780Z,7.70
2019-03-01T01:38:30.647Z,7.40
2019-03-01T01:41:00.385Z,7.15
2019-03-01T01:43:30.187Z,7.30
2019-03-01T01:46:00.113Z,7.90
2019-03-01T01:48:30.163Z,7.75
2019-03-01T01:51:00.080Z,7.53
2019-03-01T01:53:29.860Z,7.92
2019-03-01T01:55:59.862Z,6.75
2019-03-01T01:58:29.679Z,7.05
2019-03-01T02:00:59.495Z,7.17
2019-03-01T02:03:29.402Z,7.47
2019-03-01T02:05:59.241Z,7.42
2019-03-01T02:08:29.129Z,7.70
2019-03-01T02:10:58.954Z,7.58
2019-03-01T02:13:28.869Z,6.80
2019-03-01T02:15:58.779Z,7.47
2019-03-01T02:18:28.605Z,6.75
2019-03-01T02:20:58.720Z,7.20
2019-03-01T02:23:28.544Z,7.05
2019-03-01T02:25:58.543Z,7.20
2019-03-01T02:28:28.612Z,7.65
2019-03-01T02:30:59.028Z,7.40
2019-03-01T02:33:28.898Z,7.00
2019-03-01T02:35:58.823Z,7.15
2019-03-01T02:38:28.548Z,6.92
2019-03-01T02:40:58.433Z,6.92
2019-03-01T02:43:28.176Z,6.53
2019-03-01T02:45:58.080Z,6.83
2019-03-01T02:48:27.784Z,6.85
2019-03-01T02:50:57.918Z,6.55
2019-03-01T02:53:27.810Z,6.85
2019-03-01T02:55:57.694Z,6.87
2019-03-01T02:58:27.554Z,7.37
2019-03-01T03:00:57.275Z,7.22
2019-03-01T03:03:27.356Z,6.95
2019-03-01T03:06:22.074Z,7.30
2019-03-01T03:08:51.795Z,6.78
2019-03-01T03:11:21.704Z,6.80
2019-03-01T03:13:51.543Z,6.67
2019-03-01T03:16:21.682Z,6.75
2019-03-01T03:18:51.670Z,6.70
2019-03-01T03:21:21.523Z,6.50
2019-03-01T03:23:51.392Z,7.08
2019-03-01T03:26:21.308Z,6.28
2019-03-01T03:28:51.319Z,6.42
2019-03-01T03:31:21.301Z,6.85
2019-03-01T03:33:51.062Z,6.45
2019-03-01T03:36:20.963Z,6.70
2019-03-01T03:38:50.703Z,6.60
2019-03-01T03:41:20.592Z,7.12
2019-03-01T03:43:50.319Z,6.95
2019-03-01T03:46:20.210Z,6.50
2019-03-01T03:48:50.050Z,7.22
2019-03-01T03:51:19.933Z,6.00
2019-03-01T03:53:49.758Z,6.30
2019-03-01T03:56:19.888Z,6.78
2019-03-01T03:58:49.830Z,6.17
2019-03-01T04:01:19.696Z,6.67
2019-03-01T04:03:49.579Z,6.35
2019-03-01T04:06:19.434Z,6.37
2019-03-01T04:08:49.169Z,6.60
2019-03-01T04:11:19.059Z,6.80
2019-03-01T04:13:48.795Z,6.10
2019-03-01T04:16:18.692Z,6.92
2019-03-01T04:18:48.579Z,6.37
2019-03-01T04:21:18.415Z,6.75
2019-03-01T04:23:48.140Z,6.50
2019-03-01T04:26:18.057Z,6.30
2019-03-01T04:28:48.057Z,7.05
2019-03-01T04:31:17.892Z,7.00
2019-03-01T04:33:47.787Z,6.83
2019-03-01T04:36:17.528Z,6.22
2019-03-01T04:38:47.432Z,6.53
2019-03-01T04:41:17.254Z,7.28
2019-03-01T04:43:47.068Z,7.17
2019-03-01T04:46:17.005Z,7.15
2019-03-01T04:48:48.781Z,7.55
2019-03-01T04:51:19.936Z,6.28
2019-03-01T04:53:49.957Z,6.35
2019-03-01T04:56:19.567Z,6.87
2019-03-01T04:58:49.449Z,7.00
2019-03-01T05:01:19.257Z,5.87
2019-03-01T05:03:53.220Z,6.83
2019-03-01T05:06:23.243Z,6.22
2019-03-01T05:08:52.978Z,6.87
2019-03-01T05:11:22.932Z,6.72
2019-03-01T05:13:52.723Z,6.30
2019-03-01T05:16:22.846Z,6.53
2019-03-01T05:18:54.922Z,6.33
2019-03-01T05:21:24.941Z,6.40
2019-03-01T05:23:54.936Z,6.83
2019-03-01T05:26:24.818Z,6.72
2019-03-01T05:28:54.650Z,6.37
2019-03-01T05:31:24.548Z,6.60
2019-03-01T05:33:55.407Z,6.90
2019-03-01T05:36:25.247Z,6.83
2019-03-01T05:38:55.139Z,6.70
2019-03-01T05:41:24.937Z,7.10
2019-03-01T05:43:57.330Z,7.70
2019-03-01T05:46:28.141Z,8.63
2019-03-01T05:48:57.887Z,8.13
2019-03-01T05:51:27.938Z,8.70
2019-03-01T05:53:59.614Z,8.03
2019-03-01T05:56:29.543Z,8.60
2019-03-01T05:59:20.101Z,9.03
2019-03-01T06:02:14.772Z,8.68
2019-03-01T06:04:51.848Z,9.25
2019-03-01T06:07:56.465Z,10.43
2019-03-01T06:10:50.742Z,10.13
2019-03-01T06:13:54.447Z,9.98
2019-03-01T06:17:04.851Z,9.83
2019-03-01T06:19:59.304Z,9.95
2019-03-01T06:23:21.135Z,9.58
2019-03-01T06:26:56.415Z,9.20
2019-03-01T06:29:57.198Z,8.75
2019-03-01T06:33:14.507Z,8.88
2019-03-01T06:36:11.660Z,9.03
2019-03-01T06:39:44.578Z,7.72
2019-03-01T06:42:39.962Z,8.58
2019-03-01T06:45:23.560Z,8.38
2019-03-01T06:47:53.383Z,8.90
2019-03-01T06:50:36.082Z,8.68
2019-03-01T06:53:06.155Z,8.95
2019-03-01T06:55:40.273Z,9.08
2019-03-01T06:58:24.684Z,8.23
2019-03-01T07:01:02.064Z,8.68
2019-03-01T07:03:31.887Z,9.38
2019-03-01T07:06:03.510Z,9.25
2019-03-01T07:08:33.221Z,9.43
2019-03-01T07:11:02.962Z,8.75
2019-03-01T07:13:32.790Z,8.90
2019-03-01T07:16:02.718Z,9.45
2019-03-01T07:18:32.579Z,9.25
2019-03-01T07:21:02.410Z,9.83
2019-03-01T07:23:36.666Z,9.08
2019-03-01T07:26:03.793Z,8.98
2019-03-01T07:28:33.701Z,8.95
2019-03-01T07:31:03.524Z,9.03
2019-03-01T07:33:33.441Z,8.88
2019-03-01T07:36:03.325Z,8.63
2019-03-01T07:38:33.150Z,9.45
2019-03-01T07:41:02.967Z,8.60
2019-03-01T07:43:32.783Z,8.85
2019-03-01T07:46:02.726Z,9.48
2019-03-01T07:48:32.528Z,9.38
2019-03-01T07:51:02.569Z,9.30
2019-03-01T07:53:36.077Z,9.53
2019-03-01T07:56:05.296Z,9.10
2019-03-01T07:58:35.469Z,9.10
2019-03-01T08:01:05.288Z,12.63
2019-03-01T08:03:35.111Z,10.10
2019-03-01T08:06:05.008Z,11.15
2019-03-01T08:08:38.596Z,11.48
2019-03-01T08:11:06.458Z,10.25
2019-03-01T08:13:36.212Z,10.23
2019-03-01T08:16:06.080Z,9.80
2019-03-01T08:18:35.837Z,11.57
2019-03-01T08:21:06.395Z,12.00
2019-03-01T08:23:37.304Z,11.57
2019-03-01T08:26:07.189Z,13.80
2019-03-01T08:28:37.133Z,14.15
2019-03-01T08:31:07.056Z,12.63
2019-03-01T08:33:42.307Z,16.87
2019-03-01T08:36:08.600Z,15.32
2019-03-01T08:38:38.442Z,14.87
2019-03-01T08:41:08.310Z,13.43
2019-03-01T08:43:38.066Z,14.43
2019-03-01T08:46:09.370Z,12.88
2019-03-01T08:48:40.427Z,12.63
2019-03-01T08:51:10.338Z,13.20
2019-03-01T08:53:40.067Z,12.88
2019-03-01T08:56:10.904Z,11.97
2019-03-01T08:58:42.512Z,13.30
2019-03-01T09:01:13.185Z,13.90
2019-03-01T09:03:47.181Z,13.03
2019-03-01T09:06:17.113Z,14.13
2019-03-01T09:08:47.008Z,15.32
2019-03-01T09:11:16.841Z,15.10
2019-03-01T09:13:46.750Z,14.65
2019-03-01T09:16:16.589Z,14.90
2019-03-01T09:18:49.519Z,15.90
2019-03-01T09:21:17.956Z,16.65
2019-03-01T09:23:51.095Z,17.40
2019-03-01T09:26:19.961Z,16.55
2019-03-01T09:28:50.443Z,20.85
2019-03-01T09:31:20.242Z,27.32
2019-03-01T09:33:50.090Z,30.27
2019-03-01T09:36:26.836Z,32.85
2019-03-01T09:38:56.767Z,34.78
2019-03-01T09:41:26.607Z,31.42
2019-03-01T09:43:59.637Z,36.10
2019-03-01T09:46:28.358Z,36.93
2019-03-01T09:48:58.180Z,39.53
2019-03-01T09:51:28.086Z,40.65
2019-03-01T09:53:57.807Z,42.43
2019-03-01T09:56:27.712Z,44.73
2019-03-01T09:58:57.735Z,43.68
2019-03-01T10:01:27.567Z,42.70
2019-03-01T10:03:57.550Z,40.85
2019-03-01T10:06:27.294Z,40.45
2019-03-01T10:08:57.214Z,36.75
2019-03-01T10:11:27.213Z,36.60
2019-03-01T10:13:57.111Z,33.42
2019-03-01T10:16:26.953Z,32.73
2019-03-01T10:18:56.689Z,32.30
2019-03-01T10:21:26.573Z,32.70
2019-03-01T10:23:56.111Z,31.05
2019-03-01T10:26:25.794Z,29.60
2019-03-01T10:28:55.386Z,28.27
2019-03-01T10:31:24.906Z,26.93
2019-03-01T10:33:54.676Z,24.47
2019-03-01T10:36:24.561Z,25.17
2019-03-01T10:38:54.256Z,21.93
2019-03-01T10:41:23.881Z,21.07
2019-03-01T10:43:53.675Z,21.65
2019-03-01T10:46:23.299Z,20.00
2019-03-01T10:48:52.992Z,19.95
2019-03-01T10:51:22.730Z,19.92
2019-03-01T10:53:52.421Z,18.92
2019-03-01T10:56:22.117Z,17.65
2019-03-01T10:58:51.899Z,16.70
2019-03-01T11:01:21.643Z,16.97
2019-03-01T11:03:51.268Z,16.82
2019-03-01T11:06:20.973Z,15.30
2019-03-01T11:08:50.591Z,15.05
2019-03-01T11:11:20.293Z,14.50
2019-03-01T11:13:49.911Z,14.50
2019-03-01T11:16:19.609Z,13.90
2019-03-01T11:18:49.308Z,14.70
2019-03-01T11:21:18.948Z,13.48
2019-03-01T11:23:48.636Z,13.85
2019-03-01T11:26:18.484Z,13.40
2019-03-01T11:28:48.282Z,12.70
2019-03-01T11:31:17.898Z,12.23
2019-03-01T11:33:47.586Z,12.65
2019-03-01T11:36:17.199Z,11.88
2019-03-01T11:38:46.909Z,11.33
2019-03-01T11:41:16.732Z,11.60
2019-03-01T11:43:46.432Z,11.53
2019-03-01T11:46:16.134Z,11.00
2019-03-01T11:48:45.779Z,10.80
2019-03-01T11:51:15.514Z,9.75
2019-03-01T11:53:45.195Z,10.08
2019-03-01T11:56:14.874Z,10.13
2019-03-01T11:58:44.513Z,9.63
2019-03-01T12:01:17.195Z,9.70
2019-03-01T12:03:45.574Z,10.10
2019-03-01T12:06:15.164Z,9.60
2019-03-01T12:08:44.880Z,9.70
2019-03-01T12:11:14.523Z,8.58
2019-03-01T12:13:44.192Z,9.20
2019-03-01T12:16:13.811Z,9.80
2019-03-01T12:18:43.431Z,9.78
2019-03-01T12:21:13.213Z,9.15
2019-03-01T12:23:42.850Z,9.43
2019-03-01T12:26:12.740Z,8.25
2019-03-01T12:28:42.368Z,8.95
2019-03-01T12:31:12.054Z,8.35
2019-03-01T12:33:41.698Z,9.15
2019-03-01T12:36:11.418Z,8.70
2019-03-01T12:38:41.413Z,8.43
2019-03-01T12:41:11.103Z,10.25
2019-03-01T12:43:40.814Z,9.85
2019-03-01T12:46:10.455Z,9.30
2019-03-01T12:48:40.055Z,8.95
2019-03-01T12:51:09.748Z,9.10
2019-03-01T12:53:39.448Z,9.08
2019-03-01T12:56:09.189Z,9.08
2019-03-01T12:58:38.872Z,8.73
2019-03-01T13:01:08.501Z,8.80
2019-03-01T13:03:40.655Z,8.15
2019-03-01T13:06:09.659Z,8.60
2019-03-01T13:08:39.369Z,8.10
2019-03-01T13:11:08.990Z,8.63
2019-03-01T13:13:39.369Z,8.80
2019-03-01T13:16:09.002Z,9.60
2019-03-01T13:18:38.714Z,8.98
2019-03-01T13:21:09.709Z,8.68
2019-03-01T13:23:40.411Z,8.08
2019-03-01T13:26:10.837Z,8.40
2019-03-01T13:28:40.634Z,10.32
2019-03-01T13:31:11.545Z,8.10
2019-03-01T13:33:41.690Z,8.73
2019-03-01T13:36:13.268Z,7.70
2019-03-01T13:38:43.089Z,8.50
2019-03-01T13:41:12.967Z,8.78
2019-03-01T13:43:42.613Z,10.68
2019-03-01T13:46:12.395Z,13.58
2019-03-01T13:48:42.220Z,12.78
2019-03-01T13:51:13.862Z,15.13
2019-03-01T13:53:48.867Z,16.55
2019-03-01T13:56:14.727Z,17.95
2019-03-01T13:58:44.433Z,18.30
2019-03-01T14:01:13.941Z,18.42
2019-03-01T14:03:43.665Z,20.52
2019-03-01T14:06:13.275Z,21.82
2019-03-01T14:08:42.970Z,24.35
2019-03-01T14:11:15.101Z,26.30
2019-03-01T14:13:44.125Z,27.00
2019-03-01T14:16:13.762Z,28.17
2019-03-01T14:18:43.484Z,29.80
2019-03-01T14:21:14.397Z,31.90
2019-03-01T14:23:44.038Z,32.73
2019-03-01T14:26:15.134Z,33.73
2019-03-01T14:28:46.389Z,33.65
2019-03-01T14:31:16.099Z,38.67
2019-03-01T14:33:45.812Z,38.20
2019-03-01T14:36:15.512Z,37.63
2019-03-01T14:38:45.281Z,38.53
2019-03-01T14:41:15.097Z,40.45
2019-03-01T14:43:44.769Z,41.37
2019-03-01T14:46:17.347Z,44.83
2019-03-01T14:48:46.921Z,44.63
2019-03-01T14:51:16.582Z,45.38
2019-03-01T14:53:46.267Z,45.58
2019-03-01T14:56:22.831Z,46.73
2019-03-01T14:59:14.457Z,46.75
2019-03-01T15:02:23.218Z,45.80
2019-03-01T15:04:54.345Z,45.60
2019-03-01T15:07:24.184Z,46.77
2019-03-01T15:09:57.171Z,49.00
2019-03-01T15:12:25.097Z,51.30
2019-03-01T15:14:54.759Z,49.40
2019-03-01T15:17:24.332Z,53.45
2019-03-01T15:19:53.965Z,52.85
2019-03-01T15:22:23.633Z,50.45
2019-03-01T15:24:53.353Z,53.02
2019-03-01T15:27:23.069Z,55.55
2019-03-01T15:29:52.779Z,55.58
2019-03-01T15:32:22.391Z,54.40
2019-03-01T15:34:52.113Z,55.08
2019-03-01T15:37:21.719Z,53.40
2019-03-01T15:39:54.199Z,51.68
2019-03-01T15:42:22.680Z,53.38
2019-03-01T15:44:52.365Z,53.58
2019-03-01T15:47:23.882Z,55.00
2019-03-01T15:49:53.641Z,54.33
2019-03-01T15:52:23.251Z,62.48
2019-03-01T15:54:52.962Z,74.67
2019-03-01T15:57:22.766Z,76.85
2019-03-01T15:59:52.485Z,77.37
2019-03-01T16:02:22.286Z,76.70
2019-03-01T16:04:52.016Z,70.87
2019-03-01T16:07:21.706Z,68.65
2019-03-01T16:09:51.352Z,80.47
2019-03-01T16:12:21.031Z,71.82
2019-03-01T16:14:50.659Z,77.05
2019-03-01T16:17:21.855Z,75.17
2019-03-01T16:19:53.462Z,74.32
2019-03-01T16:22:23.254Z,74.80
2019-03-01T16:24:52.918Z,70.35
2019-03-01T16:27:22.572Z,69.92
2019-03-01T16:29:52.328Z,71.72
2019-03-01T16:32:22.030Z,68.15
2019-03-01T16:34:51.627Z,69.35
2019-03-01T16:37:22.678Z,67.08
2019-03-01T16:39:56.203Z,66.10
2019-03-01T16:42:24.427Z,64.55
2019-03-01T16:44:54.016Z,61.00
2019-03-01T16:47:23.947Z,60.90
2019-03-01T16:49:53.631Z,63.42
2019-03-01T16:52:26.417Z,64.70
2019-03-01T16:54:55.099Z,63.52
2019-03-01T16:57:24.834Z,62.10
2019-03-01T16:59:54.499Z,60.45
2019-03-01T17:02:24.285Z,59.20
2019-03-01T17:04:53.900Z,57.62
2019-03-01T17:07:25.125Z,58.98
2019-03-01T17:09:55.070Z,58.85
2019-03-01T17:12:24.961Z,58.33
2019-03-01T17:14:54.586Z,57.05
2019-03-01T17:17:24.275Z,56.33
2019-03-01T17:19:53.799Z,56.35
2019-03-01T17:22:26.433Z,55.30
2019-03-01T17:24:55.068Z,53.92
2019-03-01T17:27:24.749Z,54.63
2019-03-01T17:29:55.032Z,53.23
2019-03-01T17:32:25.873Z,54.58
2019-03-01T17:34:55.536Z,50.20
2019-03-01T17:37:25.821Z,52.35
2019-03-01T17:39:57.633Z,49.03
2019-03-01T17:42:27.335Z,50.92
2019-03-01T17:44:57.037Z,48.90
2019-03-01T17:47:26.660Z,48.80
2019-03-01T17:49:56.484Z,46.28
2019-03-01T17:52:26.444Z,48.92
2019-03-01T17:54:57.599Z,49.15
2019-03-01T17:57:29.179Z,47.00
2019-03-01T18:00:00.559Z,46.98
2019-03-01T18:02:31.245Z,45.63
2019-03-01T18:05:01.586Z,46.13
2019-03-01T18:07:32.015Z,44.60
2019-03-01T18:10:02.072Z,44.13
2019-03-01T18:12:32.076Z,45.60
2019-03-01T18:15:01.943Z,44.55
2019-03-01T18:17:32.934Z,42.17
2019-03-01T18:20:03.812Z,42.03
2019-03-01T18:22:33.747Z,42.10
2019-03-01T18:25:03.956Z,42.03
2019-03-01T18:27:33.865Z,40.75
2019-03-01T18:30:03.784Z,41.88
2019-03-01T18:32:33.742Z,40.17
2019-03-01T18:35:03.445Z,41.08
2019-03-01T18:37:33.318Z,39.98
2019-03-01T18:40:03.338Z,40.08
2019-03-01T18:42:34.390Z,40.43
2019-03-01T18:45:07.061Z,39.90
2019-03-01T18:47:37.773Z,39.25
2019-03-01T18:50:11.218Z,39.13
2019-03-01T18:52:41.233Z,37.78
2019-03-01T18:55:13.670Z,36.68
2019-03-01T18:57:45.592Z,37.45
2019-03-01T19:00:26.202Z,37.80
2019-03-01T19:02:57.524Z,36.60
2019-03-01T19:05:31.906Z,34.35
2019-03-01T19:08:04.845Z,35.68
2019-03-01T19:10:34.782Z,33.90
2019-03-01T19:13:05.753Z,34.43
2019-03-01T19:15:36.066Z,35.98
2019-03-01T19:18:08.013Z,34.92
2019-03-01T19:20:41.538Z,33.28
2019-03-01T19:23:12.264Z,33.50
2019-03-01T19:25:43.836Z,33.30
2019-03-01T19:28:14.901Z,35.23
2019-03-01T19:30:45.883Z,33.08
2019-03-01T19:33:17.373Z,33.02
2019-03-01T19:35:51.752Z,31.25
2019-03-01T19:38:25.125Z,32.10
2019-03-01T19:40:55.658Z,31.62
2019-03-01T19:43:25.511Z,30.45
2019-03-01T19:45:55.473Z,30.75
2019-03-01T19:48:25.364Z,32.15
2019-03-01T19:50:58.447Z,29.55
2019-03-01T19:53:28.189Z,29.48
2019-03-01T19:55:59.149Z,30.30
2019-03-01T19:58:29.400Z,29.23
2019-03-01T20:00:59.951Z,29.35
2019-03-01T20:03:31.764Z,29.02
2019-03-01T20:06:04.460Z,29.87
2019-03-01T20:08:33.664Z,27.98
2019-03-01T20:11:03.344Z,28.10
2019-03-01T20:13:33.089Z,29.02
2019-03-01T20:16:02.793Z,27.75
2019-03-01T20:18:32.437Z,27.62
2019-03-01T20:21:02.125Z,26.70
2019-03-01T20:23:31.761Z,27.02
2019-03-01T20:26:01.436Z,27.55
2019-03-01T20:28:31.085Z,26.52
2019-03-01T20:31:01.623Z,25.45
2019-03-01T20:33:32.590Z,26.07
2019-03-01T20:36:02.334Z,26.65
2019-03-01T20:38:31.958Z,25.35
2019-03-01T20:41:03.183Z,25.62
2019-03-01T20:43:33.029Z,24.82
2019-03-01T20:46:03.817Z,25.68
2019-03-01T20:48:34.209Z,24.27
2019-03-01T20:51:06.079Z,25.40
2019-03-01T20:53:35.461Z,24.43
2019-03-01T20:56:05.145Z,23.70
2019-03-01T20:58:35.787Z,24.02
2019-03-01T21:01:06.210Z,24.40
2019-03-01T21:03:35.826Z,23.30
2019-03-01T21:06:05.623Z,23.25
2019-03-01T21:08:35.258Z,23.27
2019-03-01T21:11:04.942Z,23.12
2019-03-01T21:13:34.658Z,21.77
2019-03-01T21:16:04.357Z,22.93
2019-03-01T21:18:34.788Z,22.62
2019-03-01T21:21:04.597Z,22.50
2019-03-01T21:23:34.284Z,23.02
2019-03-01T21:26:03.920Z,22.52
2019-03-01T21:28:36.351Z,22.45
2019-03-01T21:31:04.980Z,22.60
2019-03-01T21:33:34.618Z,23.15
2019-03-01T21:36:04.292Z,22.55
2019-03-01T21:38:33.828Z,22.42
2019-03-01T21:41:06.402Z,21.73
2019-03-01T21:43:36.766Z,22.13
2019-03-01T21:46:06.322Z,21.00
2019-03-01T21:48:35.949Z,23.02
2019-03-01T21:51:05.639Z,22.00
2019-03-01T21:53:36.516Z,22.20
2019-03-01T21:56:08.552Z,21.17
2019-03-01T21:58:38.599Z,22.52
2019-03-01T22:01:09.697Z,20.95
2019-03-01T22:03:40.713Z,21.10
2019-03-01T22:06:10.556Z,20.75
2019-03-01T22:08:40.197Z,21.02
2019-03-01T22:11:10.531Z,20.97
2019-03-01T22:13:41.253Z,20.70
2019-03-01T22:16:10.932Z,20.88
2019-03-01T22:18:40.583Z,20.23
2019-03-01T22:21:10.183Z,19.75
2019-03-01T22:23:39.875Z,20.45
2019-03-01T22:26:12.439Z,21.12
2019-03-01T22:28:40.927Z,19.35
2019-03-01T22:31:10.558Z,20.48
2019-03-01T22:33:40.240Z,18.80
2019-03-01T22:36:09.883Z,18.55
2019-03-01T22:38:41.405Z,19.10
2019-03-01T22:41:10.942Z,18.95
2019-03-01T22:43:40.519Z,18.50
2019-03-01T22:46:10.229Z,18.15
2019-03-01T22:48:46.856Z,18.60
2019-03-01T22:51:14.429Z,17.73
2019-03-01T22:53:43.256Z,17.87
2019-03-01T22:56:13.093Z,18.02
2019-03-01T22:58:42.818Z,18.07
2019-03-01T23:01:32.721Z,17.57
2019-03-01T23:04:07.269Z,17.98
2019-03-01T23:06:37.009Z,17.77
2019-03-01T23:09:11.602Z,18.00
2019-03-01T23:11:41.383Z,17.32
2019-03-01T23:14:10.981Z,17.05
2019-03-01T23:16:40.657Z,16.85
2019-03-01T23:19:12.753Z,16.97
2019-03-01T23:21:41.819Z,17.00
2019-03-01T23:24:11.439Z,15.88
2019-03-01T23:26:41.136Z,16.32
2019-03-01T23:29:10.849Z,17.10
2019-03-01T23:31:40.523Z,16.10
2019-03-01T23:34:10.169Z,16.07
2019-03-01T23:36:39.791Z,16.02
2019-03-01T23:39:09.490Z,15.68
2019-03-01T23:41:39.117Z,15.58
2019-03-01T23:44:08.814Z,15.83
2019-03-01T23:46:38.619Z,15.70
2019-03-01T23:49:08.339Z,16.52
2019-03-01T23:51:38.036Z,14.75
2019-03-01T23:54:09.095Z,14.23
2019-03-01T23:56:39.125Z,14.90
2019-03-01T23:59:08.823Z,14.85
